Time;durP1;ratioP1;P1;durP2;ratioP2;P2;SDS_P1;SDS_P2;PMS_P1;PMS_P2;Temp;Humidity;BMP_temperature;BMP_pressure;BME280_temperature;BME280_humidity;BME280_pressure;Samples;Min_cycle;Max_cycle;Signal;HPM_P1;HPM_P2
2023/06/29 00:01:08;;;;;;;1.53;1.53;;;23.70;70.60;;;;;;5050369;28;43540;-77
2023/06/29 00:03:36;;;;;;;1.60;1.60;;;23.80;70.40;;;;;;5036196;28;46374;-78
2023/06/29 00:06:05;;;;;;;1.60;1.60;;;23.90;69.90;;;;;;5034198;28;44894;-76
2023/06/29 00:08:35;;;;;;;1.70;1.70;;;24.00;69.60;;;;;;5053614;28;43410;-78
2023/06/29 00:11:04;;;;;;;1.60;1.60;;;24.00;69.50;;;;;;5054895;28;43497;-76
2023/06/29 00:13:33;;;;;;;1.60;1.60;;;24.00;69.40;;;;;;5050617;28;44086;-74
2023/06/29 00:16:02;;;;;;;1.40;1.40;;;24.00;69.60;;;;;;5050619;28;43759;-75
2023/06/29 00:18:30;;;;;;;1.73;1.73;;;23.90;69.90;;;;;;5025657;28;43453;-77
2023/06/29 00:20:58;;;;;;;1.53;1.53;;;23.90;70.00;;;;;;5029282;28;43508;-76
2023/06/29 00:23:26;;;;;;;1.70;1.70;;;23.90;69.90;;;;;;5037086;28;46021;-76
2023/06/29 00:25:55;;;;;;;1.60;1.60;;;23.80;70.70;;;;;;5047583;28;43457;-76
2023/06/29 00:28:23;;;;;;;2.10;2.10;;;23.70;70.30;;;;;;5039982;28;43983;-75
2023/06/29 00:30:53;;;;;;;1.70;1.70;;;23.80;70.30;;;;;;5044308;28;43393;-78
2023/06/29 00:33:21;;;;;;;1.70;1.70;;;23.80;70.10;;;;;;5031197;28;45914;-77
2023/06/29 00:35:49;;;;;;;1.73;1.73;;;23.90;69.70;;;;;;5053547;28;43411;-77
2023/06/29 00:38:17;;;;;;;1.83;1.83;;;24.00;69.50;;;;;;5045352;28;43417;-77
2023/06/29 00:40:45;;;;;;;1.60;1.60;;;24.00;69.30;;;;;;5032057;28;43479;-77
2023/06/29 00:43:13;;;;;;;1.70;1.70;;;24.00;70.00;;;;;;5034428;28;45683;-76
2023/06/29 00:45:41;;;;;;;1.67;1.67;;;23.90;69.40;;;;;;5035007;28;44954;-76
2023/06/29 00:48:11;;;;;;;1.63;1.63;;;23.90;69.90;;;;;;5035694;28;43444;-75
2023/06/29 00:50:40;;;;;;;1.70;1.70;;;23.90;69.80;;;;;;5050665;28;43440;-76
2023/06/29 00:53:08;;;;;;;1.70;1.70;;;23.90;69.90;;;;;;5020737;28;45694;-76
2023/06/29 00:55:36;;;;;;;1.40;1.40;;;23.80;70.00;;;;;;5033563;28;44924;-74
2023/06/29 00:58:04;;;;;;;1.60;1.50;;;23.70;70.30;;;;;;5050075;28;43539;-76
2023/06/29 01:00:36;;;;;;;1.80;1.80;;;23.70;70.30;;;;;;5037582;28;43529;-74
2023/06/29 01:03:11;;;;;;;1.73;1.73;;;23.70;70.30;;;;;;5031368;28;45552;-77
2023/06/29 01:05:42;;;;;;;2.00;2.00;;;23.70;70.30;;;;;;5033683;28;44619;-76
2023/06/29 01:08:14;;;;;;;1.63;1.63;;;23.70;70.60;;;;;;5025190;28;43490;-76
2023/06/29 01:10:42;;;;;;;1.80;1.80;;;23.70;70.50;;;;;;5038947;28;43519;-76
2023/06/29 01:13:10;;;;;;;1.60;1.60;;;23.70;70.10;;;;;;5036191;28;45775;-77
2023/06/29 01:15:38;;;;;;;1.80;1.80;;;23.90;69.80;;;;;;5030293;28;45020;-78
2023/06/29 01:18:07;;;;;;;1.70;1.70;;;24.00;69.60;;;;;;5032598;28;43423;-77
2023/06/29 01:20:35;;;;;;;1.43;1.43;;;24.00;69.40;;;;;;5038428;28;43548;-74
2023/06/29 01:23:10;;;;;;;1.60;1.60;;;24.00;69.40;;;;;;5029953;28;44182;-74
2023/06/29 01:25:41;;;;;;;1.70;1.70;;;23.90;69.70;;;;;;5030435;28;44762;-77
2023/06/29 01:28:11;;;;;;;1.83;1.73;;;23.90;70.00;;;;;;5035427;28;43427;-76
2023/06/29 01:30:45;;;;;;;1.60;1.60;;;23.80;69.90;;;;;;5031114;28;43554;-76
2023/06/29 01:33:15;;;;;;;1.80;1.80;;;23.80;70.00;;;;;;5051645;28;44004;-77
2023/06/29 01:35:43;;;;;;;1.70;1.70;;;23.70;70.00;;;;;;5029893;28;45125;-77
2023/06/29 01:38:13;;;;;;;1.60;1.60;;;23.70;70.30;;;;;;5035024;28;43373;-74
2023/06/29 01:40:44;;;;;;;1.70;1.70;;;23.70;70.30;;;;;;5036977;28;43499;-77
2023/06/29 01:43:12;;;;;;;1.57;1.57;;;23.70;70.30;;;;;;5047906;28;45708;-78
2023/06/29 01:45:40;;;;;;;1.60;1.60;;;23.70;70.30;;;;;;5046292;28;44809;-77
2023/06/29 01:48:09;;;;;;;1.60;1.60;;;23.60;70.50;;;;;;5027115;28;43454;-78
2023/06/29 01:50:37;;;;;;;1.80;1.80;;;23.70;70.30;;;;;;5045289;28;43456;-77
2023/06/29 01:53:07;;;;;;;1.57;1.57;;;23.80;70.00;;;;;;5037414;28;45723;-77
2023/06/29 01:55:36;;;;;;;1.60;1.60;;;23.90;69.70;;;;;;5044407;28;43459;-77
2023/06/29 01:58:06;;;;;;;1.60;1.60;;;24.00;69.20;;;;;;5032243;28;43431;-78
2023/06/29 02:00:34;;;;;;;1.60;1.60;;;24.10;69.10;;;;;;5052221;28;43457;-77
2023/06/29 02:03:05;;;;;;;1.50;1.50;;;24.00;69.00;;;;;;5035419;28;46311;-76
2023/06/29 02:05:33;;;;;;;1.57;1.57;;;24.00;69.20;;;;;;5023446;28;43465;-77
2023/06/29 02:08:01;;;;;;;1.50;1.50;;;23.90;69.60;;;;;;5030571;28;43545;-76
2023/06/29 02:10:29;;;;;;;1.53;1.53;;;23.90;69.50;;;;;;5056600;28;43393;-76
2023/06/29 02:12:57;;;;;;;1.60;1.60;;;23.90;69.60;;;;;;5031256;28;45722;-75
2023/06/29 02:15:28;;;;;;;1.90;1.90;;;23.80;69.80;;;;;;5030847;28;44333;-77
2023/06/29 02:18:04;;;;;;;1.43;1.43;;;23.80;70.10;;;;;;5033280;28;44021;-77
2023/06/29 02:20:33;;;;;;;1.57;1.57;;;23.80;70.10;;;;;;5050688;28;43654;-77
2023/06/29 02:23:02;;;;;;;1.50;1.50;;;23.70;70.00;;;;;;5038630;28;45691;-78
2023/06/29 02:25:30;;;;;;;1.63;1.63;;;23.70;70.10;;;;;;5020517;28;44530;-77
2023/06/29 02:27:58;;;;;;;1.80;1.80;;;23.70;70.40;;;;;;5042566;28;43464;-77
2023/06/29 02:30:27;;;;;;;1.77;1.73;;;23.70;70.30;;;;;;5055711;28;43437;-77
2023/06/29 02:32:55;;;;;;;1.77;1.77;;;23.70;70.30;;;;;;5025972;28;45770;-78
2023/06/29 02:35:24;;;;;;;1.57;1.57;;;23.70;70.40;;;;;;5029477;28;44378;-78
2023/06/29 02:37:52;;;;;;;1.70;1.70;;;23.60;70.30;;;;;;5038566;28;43472;-77
2023/06/29 02:40:20;;;;;;;1.80;1.80;;;23.60;70.60;;;;;;5027230;28;43511;-78
2023/06/29 02:42:48;;;;;;;1.77;1.77;;;23.70;70.30;;;;;;5033187;28;46422;-76
2023/06/29 02:45:16;;;;;;;1.60;1.60;;;23.80;70.00;;;;;;5055648;28;43501;-78
2023/06/29 02:47:46;;;;;;;1.60;1.60;;;23.90;69.50;;;;;;5030849;28;43490;-76
2023/06/29 02:50:15;;;;;;;1.37;1.37;;;24.00;69.30;;;;;;5049078;28;43459;-78
2023/06/29 02:52:47;;;;;;;1.70;1.70;;;24.00;69.00;;;;;;5054166;28;44179;-77
2023/06/29 02:55:15;;;;;;;1.53;1.53;;;24.00;69.10;;;;;;5028552;28;44330;-77
2023/06/29 02:57:44;;;;;;;1.40;1.40;;;23.90;69.30;;;;;;5031200;28;43424;-77
2023/06/29 03:00:13;;;;;;;1.60;1.60;;;23.90;69.70;;;;;;5034918;28;43574;-75
2023/06/29 03:02:41;;;;;;;1.77;1.77;;;23.90;69.60;;;;;;5030468;28;45959;-77
2023/06/29 03:05:11;;;;;;;1.93;1.80;;;23.80;69.60;;;;;;5027757;28;44998;-76
2023/06/29 03:07:40;;;;;;;1.70;1.70;;;23.80;69.80;;;;;;5024610;28;43414;-78
2023/06/29 03:10:09;;;;;;;1.80;1.80;;;23.70;70.10;;;;;;5038269;28;43463;-79
2023/06/29 03:12:37;;;;;;;1.50;1.50;;;23.70;70.00;;;;;;5043745;28;44217;-76
2023/06/29 03:15:06;;;;;;;1.60;1.60;;;23.80;69.80;;;;;;5048904;28;43514;-77
2023/06/29 03:17:34;;;;;;;1.70;1.70;;;23.90;69.40;;;;;;5047341;28;43392;-78
2023/06/29 03:20:02;;;;;;;1.50;1.50;;;24.00;69.20;;;;;;5045508;28;43423;-79
2023/06/29 03:22:31;;;;;;;1.77;1.77;;;24.00;69.10;;;;;;5029204;28;45621;-76
2023/06/29 03:24:59;;;;;;;1.60;1.60;;;23.90;69.10;;;;;;5042643;28;43851;-79
2023/06/29 03:27:27;;;;;;;1.87;1.80;;;23.90;69.50;;;;;;5042806;28;43372;-78
2023/06/29 03:29:55;;;;;;;1.70;1.70;;;23.80;69.60;;;;;;5040297;28;44033;-77
2023/06/29 03:32:23;;;;;;;1.50;1.50;;;23.80;69.70;;;;;;5040996;28;43833;-78
2023/06/29 03:34:51;;;;;;;1.70;1.70;;;23.80;70.60;;;;;;5042380;28;43384;-77
2023/06/29 03:37:19;;;;;;;1.60;1.60;;;23.70;69.80;;;;;;5027395;28;43484;-76
2023/06/29 03:39:49;;;;;;;2.90;1.83;;;23.70;70.30;;;;;;5053756;28;43417;-76
2023/06/29 03:42:17;;;;;;;1.70;1.70;;;23.70;70.20;;;;;;5049022;28;43596;-75
2023/06/29 03:44:45;;;;;;;1.30;1.30;;;23.70;70.30;;;;;;5032211;28;44685;-77
2023/06/29 03:47:13;;;;;;;1.70;1.70;;;23.70;70.20;;;;;;5021085;28;43429;-79
2023/06/29 03:49:45;;;;;;;1.70;1.70;;;23.60;70.40;;;;;;5035802;28;43445;-77
2023/06/29 03:52:13;;;;;;;2.10;2.00;;;23.70;70.30;;;;;;5053440;28;46069;-77
2023/06/29 03:54:41;;;;;;;3.77;2.60;;;23.70;69.80;;;;;;5025314;28;45023;-78
2023/06/29 03:57:11;;;;;;;4.53;2.83;;;23.90;69.50;;;;;;5052742;28;43365;-76
2023/06/29 03:59:39;;;;;;;6.67;3.73;;;24.00;69.10;;;;;;5055208;28;43452;-76
2023/06/29 04:02:07;;;;;;;13.10;4.47;;;24.00;68.80;;;;;;5027411;28;45395;-76
2023/06/29 04:04:38;;;;;;;12.83;5.07;;;24.00;68.70;;;;;;5022687;28;44419;-78
2023/06/29 04:07:07;;;;;;;16.70;6.10;;;23.90;68.90;;;;;;5032561;28;44598;-79
2023/06/29 04:09:35;;;;;;;15.20;6.13;;;23.90;69.30;;;;;;5031229;28;43492;-78
2023/06/29 04:12:03;;;;;;;17.97;6.67;;;23.90;69.30;;;;;;5040184;28;45960;-77
2023/06/29 04:14:33;;;;;;;17.40;6.70;;;23.80;69.40;;;;;;5035403;28;44304;-78
2023/06/29 04:17:01;;;;;;;21.40;7.97;;;23.80;69.50;;;;;;5051328;28;43374;-78
2023/06/29 04:19:30;;;;;;;24.83;8.43;;;23.70;69.80;;;;;;5048865;28;43448;-77
2023/06/29 04:21:58;;;;;;;20.90;8.23;;;23.70;69.80;;;;;;5046183;28;43573;-78
2023/06/29 04:24:26;;;;;;;18.00;8.23;;;23.70;69.90;;;;;;5044162;28;44706;-76
2023/06/29 04:26:54;;;;;;;21.40;8.93;;;23.70;69.80;;;;;;5053438;28;44446;-75
2023/06/29 04:29:22;;;;;;;31.33;9.80;;;23.70;70.10;;;;;;5042849;28;43380;-77
2023/06/29 04:31:54;;;;;;;23.73;8.87;;;23.70;70.10;;;;;;5026726;28;47205;-77
2023/06/29 04:34:22;;;;;;;26.67;8.67;;;23.60;70.00;;;;;;5025417;28;44615;-77
2023/06/29 04:36:51;;;;;;;19.13;8.60;;;23.70;70.10;;;;;;5044827;28;43432;-77
2023/06/29 04:39:19;;;;;;;25.80;9.57;;;23.60;69.90;;;;;;5035324;28;43588;-75
2023/06/29 04:41:47;;;;;;;24.73;10.23;;;23.60;70.30;;;;;;5034968;28;45412;-77
2023/06/29 04:44:15;;;;;;;30.50;11.00;;;23.60;70.00;;;;;;5046417;28;43472;-78
2023/06/29 04:46:43;;;;;;;19.70;9.97;;;23.70;69.70;;;;;;5026412;28;43587;-78
2023/06/29 04:49:12;;;;;;;22.80;9.57;;;23.90;69.50;;;;;;5040479;28;44538;-77
2023/06/29 04:51:40;;;;;;;24.03;10.50;;;24.00;69.00;;;;;;5053782;28;43865;-78
2023/06/29 04:54:08;;;;;;;22.97;10.80;;;24.00;68.70;;;;;;5039248;28;44606;-77
2023/06/29 04:56:36;;;;;;;23.60;9.97;;;24.00;68.70;;;;;;5046393;28;44556;-77
2023/06/29 04:59:05;;;;;;;26.77;10.33;;;24.00;69.00;;;;;;5040739;28;43526;-77
2023/06/29 05:01:33;;;;;;;23.63;10.50;;;23.90;69.20;;;;;;5047059;28;44105;-77
2023/06/29 05:04:01;;;;;;;19.17;9.90;;;23.90;69.30;;;;;;5023318;28;44797;-75
2023/06/29 05:06:31;;;;;;;22.73;9.57;;;23.90;69.30;;;;;;5031479;28;43411;-76
2023/06/29 05:08:59;;;;;;;21.87;10.30;;;23.80;69.30;;;;;;5046847;28;43489;-77
2023/06/29 05:11:27;;;;;;;25.20;9.50;;;23.70;69.60;;;;;;5043948;28;43606;-78
2023/06/29 05:13:55;;;;;;;24.80;10.10;;;23.70;69.60;;;;;;5027461;28;44341;-76
2023/06/29 05:16:23;;;;;;;18.77;8.83;;;23.70;69.70;;;;;;5054613;28;43418;-79
2023/06/29 05:18:51;;;;;;;18.80;8.70;;;23.70;69.60;;;;;;5024322;28;43554;-77
2023/06/29 05:21:20;;;;;;;18.13;9.27;;;23.70;69.70;;;;;;5042954;28;44655;-78
2023/06/29 05:23:49;;;;;;;17.93;9.00;;;23.60;69.90;;;;;;5038851;28;44709;-78
2023/06/29 05:26:17;;;;;;;15.07;8.50;;;23.70;69.70;;;;;;5048895;28;43488;-77
2023/06/29 05:28:45;;;;;;;19.37;9.13;;;23.80;69.40;;;;;;5025365;28;43443;-76
2023/06/29 05:31:31;;;;;;;13.90;8.67;;;23.90;69.10;;;;;;5031959;28;44731;-77
2023/06/29 05:34:00;;;;;;;20.27;9.23;;;23.90;69.00;;;;;;5029796;28;44658;-78
2023/06/29 05:36:29;;;;;;;15.43;8.77;;;23.90;68.80;;;;;;5040078;28;43755;-78
2023/06/29 05:38:59;;;;;;;17.67;8.73;;;23.90;69.10;;;;;;5029435;28;44023;-76
2023/06/29 05:41:27;;;;;;;15.47;8.40;;;23.80;69.40;;;;;;5050876;28;44130;-77
2023/06/29 05:43:55;;;;;;;17.63;9.10;;;23.80;69.50;;;;;;5053524;28;43496;-77
2023/06/29 05:46:23;;;;;;;15.97;8.77;;;23.80;69.60;;;;;;5042073;28;43455;-78
2023/06/29 05:48:51;;;;;;;17.00;8.47;;;23.70;69.50;;;;;;5022409;28;43556;-77
2023/06/29 05:51:19;;;;;;;17.00;8.70;;;23.70;69.60;;;;;;5054462;28;43780;-77
2023/06/29 05:53:47;;;;;;;14.90;8.33;;;23.70;69.90;;;;;;5039354;28;44449;-77
2023/06/29 05:56:17;;;;;;;14.60;7.83;;;23.70;69.60;;;;;;5042374;28;43453;-76
2023/06/29 05:58:45;;;;;;;15.23;8.00;;;23.80;69.40;;;;;;5037525;28;43444;-77
2023/06/29 06:01:13;;;;;;;11.43;7.70;;;23.80;69.30;;;;;;5021827;28;45399;-77
2023/06/29 06:03:42;;;;;;;14.43;8.40;;;23.80;69.40;;;;;;5030015;28;45345;-77
2023/06/29 06:06:10;;;;;;;11.70;7.90;;;23.80;69.60;;;;;;5026194;28;43396;-77
2023/06/29 06:08:38;;;;;;;14.70;8.00;;;23.70;69.40;;;;;;5035820;28;43553;-76
2023/06/29 06:11:06;;;;;;;12.67;8.00;;;23.70;69.50;;;;;;5031209;28;45911;-77
2023/06/29 06:13:36;;;;;;;14.03;8.30;;;23.70;69.50;;;;;;5030105;28;45074;-76
2023/06/29 06:16:05;;;;;;;11.47;7.47;;;23.70;69.70;;;;;;5038804;28;43427;-77
2023/06/29 06:18:34;;;;;;;12.00;8.07;;;23.70;69.80;;;;;;5047897;28;43489;-76
2023/06/29 06:21:03;;;;;;;13.63;7.63;;;23.70;69.90;;;;;;5029443;28;47108;-78
2023/06/29 06:23:31;;;;;;;11.93;7.77;;;23.70;69.90;;;;;;5029154;28;45004;-76
2023/06/29 06:26:02;;;;;;;10.30;7.10;;;23.60;69.70;;;;;;5030010;28;43423;-75
2023/06/29 06:28:30;;;;;;;11.33;7.70;;;23.60;70.10;;;;;;5055956;28;43512;-78
2023/06/29 06:30:59;;;;;;;10.57;7.40;;;23.60;69.80;;;;;;5034586;28;45732;-78
2023/06/29 06:33:30;;;;;;;12.37;7.23;;;23.70;69.50;;;;;;5052965;28;43611;-78
2023/06/29 06:35:59;;;;;;;9.47;7.03;;;23.90;69.20;;;;;;5027083;28;43411;-78
2023/06/29 06:38:27;;;;;;;9.27;6.73;;;23.90;68.80;;;;;;5036056;28;43592;-78
2023/06/29 06:41:15;;;;;;;10.80;6.83;;;24.00;68.80;;;;;;5025690;28;44242;-78
2023/06/29 06:43:43;;;;;;;9.83;7.23;;;23.90;68.80;;;;;;5038019;28;43675;-77
2023/06/29 06:46:13;;;;;;;11.20;7.03;;;23.90;69.00;;;;;;5055851;28;43345;-77
2023/06/29 06:48:41;;;;;;;10.63;7.13;;;23.80;69.20;;;;;;5055038;28;43437;-77
2023/06/29 06:51:09;;;;;;;10.03;6.63;;;23.80;69.20;;;;;;5063973;28;45298;-77
2023/06/29 06:53:37;;;;;;;8.37;6.53;;;23.80;69.30;;;;;;5031140;28;44350;-77
2023/06/29 06:56:05;;;;;;;9.13;6.73;;;23.70;69.20;;;;;;5054403;28;43444;-76
2023/06/29 06:58:35;;;;;;;10.47;7.10;;;23.70;69.70;;;;;;5037979;28;43909;-77
2023/06/29 07:01:03;;;;;;;9.17;6.53;;;23.70;69.80;;;;;;5047573;28;43990;-76
2023/06/29 07:03:32;;;;;;;10.17;6.57;;;23.70;69.90;;;;;;5050473;28;44019;-77
2023/06/29 07:06:01;;;;;;;7.53;6.47;;;23.60;70.40;;;;;;5040510;28;43460;-77
2023/06/29 07:08:29;;;;;;;8.70;6.53;;;23.60;70.00;;;;;;5042425;28;43417;-77
2023/06/29 07:10:57;;;;;;;7.63;6.57;;;23.60;69.90;;;;;;5043168;28;44204;-75
2023/06/29 07:13:26;;;;;;;8.83;6.80;;;23.70;69.80;;;;;;5059643;28;43441;-77
2023/06/29 07:15:55;;;;;;;7.80;6.03;;;23.80;69.40;;;;;;5051794;28;43433;-76
2023/06/29 07:18:23;;;;;;;7.30;6.13;;;23.90;69.00;;;;;;5051413;28;43544;-77
2023/06/29 07:20:52;;;;;;;10.07;6.63;;;23.90;68.80;;;;;;5027566;28;46079;-77
2023/06/29 07:23:23;;;;;;;8.10;6.37;;;23.90;68.90;;;;;;5039319;28;44619;-79
2023/06/29 07:25:54;;;;;;;6.53;5.90;;;23.80;69.00;;;;;;5055818;28;43775;-76
2023/06/29 07:28:22;;;;;;;8.67;6.50;;;23.70;69.40;;;;;;5049589;28;43584;-78
2023/06/29 07:30:51;;;;;;;6.23;5.63;;;23.70;69.40;;;;;;5056351;28;43758;-77
2023/06/29 07:33:19;;;;;;;6.43;5.80;;;23.70;69.60;;;;;;5054878;28;43443;-76
2023/06/29 07:35:47;;;;;;;8.37;6.33;;;23.70;69.50;;;;;;5036598;28;43482;-78
2023/06/29 07:38:17;;;;;;;7.67;5.83;;;23.60;69.80;;;;;;5060690;28;43456;-78
2023/06/29 07:40:45;;;;;;;7.93;5.87;;;23.60;69.90;;;;;;5030365;28;46007;-76
2023/06/29 07:43:16;;;;;;;6.27;5.57;;;23.60;69.90;;;;;;5026710;28;44359;-77
2023/06/29 07:45:45;;;;;;;6.27;5.63;;;23.60;69.90;;;;;;5043044;28;43478;-77
2023/06/29 07:48:13;;;;;;;6.37;5.77;;;23.60;69.90;;;;;;5050199;28;43496;-77
2023/06/29 07:50:42;;;;;;;5.73;5.23;;;23.50;70.20;;;;;;5057056;28;43982;-78
2023/06/29 07:53:10;;;;;;;6.07;5.47;;;23.60;70.10;;;;;;5051889;28;43428;-78
2023/06/29 07:55:42;;;;;;;6.00;5.50;;;23.70;69.70;;;;;;5027812;28;43388;-77
2023/06/29 07:58:11;;;;;;;6.30;5.70;;;23.80;69.40;;;;;;5051290;28;43521;-77
2023/06/29 08:00:42;;;;;;;6.30;5.70;;;23.90;69.10;;;;;;5027505;28;45638;-76
2023/06/29 08:03:10;;;;;;;5.70;5.17;;;23.90;69.00;;;;;;5045531;28;43487;-79
2023/06/29 08:05:38;;;;;;;5.57;5.07;;;23.90;69.00;;;;;;5056452;28;43429;-79
2023/06/29 08:08:09;;;;;;;6.30;5.60;;;23.90;69.10;;;;;;5051098;28;43381;-78
2023/06/29 08:10:38;;;;;;;6.10;5.43;;;23.80;69.60;;;;;;5029959;28;46013;-78
2023/06/29 08:13:07;;;;;;;5.63;5.10;;;23.70;69.50;;;;;;5036921;28;44281;-78
2023/06/29 08:15:35;;;;;;;6.27;5.63;;;23.70;69.60;;;;;;5043190;28;44221;-77
2023/06/29 08:18:03;;;;;;;5.60;5.10;;;23.70;69.60;;;;;;5055364;28;43388;-76
2023/06/29 08:20:32;;;;;;;5.03;4.63;;;23.60;70.00;;;;;;5046831;28;44062;-76
2023/06/29 08:23:00;;;;;;;5.73;5.23;;;23.60;70.00;;;;;;5046439;28;43551;-78
2023/06/29 08:25:28;;;;;;;5.83;5.33;;;23.60;70.00;;;;;;5050311;28;43481;-79
2023/06/29 08:27:56;;;;;;;5.47;4.97;;;23.60;69.90;;;;;;5034433;28;44144;-78
2023/06/29 08:30:25;;;;;;;5.20;4.80;;;23.50;70.20;;;;;;5048002;28;43621;-77
2023/06/29 08:32:54;;;;;;;5.37;4.90;;;23.50;70.30;;;;;;5032529;28;44576;-77
2023/06/29 08:35:25;;;;;;;5.47;4.97;;;23.60;69.90;;;;;;5033362;28;43556;-79
2023/06/29 08:37:54;;;;;;;5.07;4.67;;;23.70;69.60;;;;;;5031471;28;43442;-78
2023/06/29 08:40:22;;;;;;;4.90;4.50;;;23.80;69.30;;;;;;5042931;28;45822;-78
2023/06/29 08:42:51;;;;;;;5.17;4.67;;;23.90;69.10;;;;;;5032462;28;44625;-77
2023/06/29 08:45:19;;;;;;;5.13;4.73;;;23.90;69.10;;;;;;5036101;28;43421;-78
2023/06/29 08:47:51;;;;;;;5.10;4.80;;;23.80;69.10;;;;;;5040202;28;43574;-78
2023/06/29 08:50:21;;;;;;;5.03;4.60;;;23.80;69.50;;;;;;5059460;28;44139;-76
2023/06/29 08:52:49;;;;;;;5.17;4.67;;;23.70;69.50;;;;;;5032470;28;44864;-77
2023/06/29 08:55:18;;;;;;;4.90;4.50;;;23.70;69.60;;;;;;5045008;28;43324;-78
2023/06/29 08:57:46;;;;;;;4.97;4.57;;;23.70;69.60;;;;;;5022821;28;43519;-78
2023/06/29 09:00:15;;;;;;;5.27;4.77;;;23.60;69.80;;;;;;5030790;28;44450;-77
2023/06/29 09:02:43;;;;;;;4.63;4.30;;;23.60;70.10;;;;;;5030633;28;44405;-78
2023/06/29 09:05:14;;;;;;;5.00;4.60;;;23.60;70.10;;;;;;5059537;28;43542;-78
2023/06/29 09:07:42;;;;;;;4.63;4.23;;;23.60;70.10;;;;;;5046435;28;43566;-79
2023/06/29 09:10:11;;;;;;;4.60;4.30;;;23.50;69.90;;;;;;5036210;28;46120;-78
2023/06/29 09:12:40;;;;;;;4.53;4.23;;;23.50;70.40;;;;;;5029546;28;44695;-78
2023/06/29 09:15:10;;;;;;;4.60;4.30;;;23.50;70.30;;;;;;5046672;28;43558;-77
2023/06/29 09:17:38;;;;;;;4.80;4.50;;;23.60;70.00;;;;;;5025856;28;43907;-77
2023/06/29 09:20:13;;;;;;;4.90;4.50;;;23.70;69.70;;;;;;5031251;28;46218;-77
2023/06/29 09:22:42;;;;;;;4.60;4.30;;;23.70;69.70;;;;;;5048183;28;43492;-78
2023/06/29 09:25:13;;;;;;;5.27;4.87;;;23.70;69.80;;;;;;5034725;28;43465;-77
2023/06/29 09:28:04;;;;;;;4.40;4.10;;;23.60;69.80;;;;;;5042134;28;43464;-77
2023/06/29 09:30:37;;;;;;;4.57;4.27;;;23.70;70.60;;;;;;5049092;28;45579;-78
2023/06/29 09:33:07;;;;;;;4.20;3.97;;;23.70;69.80;;;;;;5048491;28;43435;-78
2023/06/29 09:35:35;;;;;;;4.40;4.10;;;23.60;69.70;;;;;;5027788;28;43447;-77
2023/06/29 09:38:05;;;;;;;4.60;4.20;;;23.60;70.20;;;;;;5027328;28;43471;-78
2023/06/29 09:40:47;;;;;;;4.30;4.10;;;23.60;70.10;;;;;;5052101;28;44027;-78
2023/06/29 09:43:20;;;;;;;4.50;4.20;;;23.70;69.90;;;;;;5049095;28;43512;-77
2023/06/29 09:45:49;;;;;;;4.20;3.90;;;23.80;69.50;;;;;;5029951;28;43507;-78
2023/06/29 09:48:17;;;;;;;4.20;4.00;;;23.80;69.20;;;;;;5029249;28;43840;-78
2023/06/29 09:50:51;;;;;;;4.30;4.00;;;23.80;69.20;;;;;;5041755;28;45276;-77
2023/06/29 09:53:30;;;;;;;4.27;3.97;;;23.80;69.30;;;;;;5049532;28;43417;-78
2023/06/29 09:55:59;;;;;;;4.03;3.73;;;23.70;69.40;;;;;;5040495;28;43459;-76
2023/06/29 09:58:28;;;;;;;4.10;3.90;;;23.70;69.80;;;;;;5033811;28;43446;-76
2023/06/29 10:00:58;;;;;;;3.87;3.67;;;23.60;69.80;;;;;;5049550;28;43865;-77
2023/06/29 10:03:27;;;;;;;4.50;4.20;;;23.60;69.80;;;;;;5045395;28;43571;-78
2023/06/29 10:05:57;;;;;;;4.57;4.37;;;23.60;70.40;;;;;;5039481;28;44585;-77
2023/06/29 10:08:27;;;;;;;4.37;4.10;;;23.60;70.30;;;;;;5043249;28;43938;-78
2023/06/29 10:10:59;;;;;;;4.03;3.80;;;23.50;70.20;;;;;;5048468;28;44044;-78
2023/06/29 10:13:32;;;;;;;4.10;3.90;;;23.50;70.10;;;;;;5058182;28;43479;-78
2023/06/29 10:16:00;;;;;;;3.80;3.60;;;23.50;69.80;;;;;;5057529;22;44866;-71
2023/06/29 10:18:30;;;;;;;4.30;4.00;;;23.50;70.50;;;;;;5052751;28;43475;-69
2023/06/29 10:20:58;;;;;;;3.70;3.50;;;23.50;70.40;;;;;;5055233;28;43588;-71
2023/06/29 10:23:26;;;;;;;3.83;3.63;;;23.60;70.00;;;;;;5052833;28;43438;-72
2023/06/29 10:25:54;;;;;;;4.13;3.90;;;23.70;69.70;;;;;;5045960;28;43397;-69
2023/06/29 10:28:23;;;;;;;3.93;3.73;;;23.80;69.40;;;;;;5054880;28;43428;-69
2023/06/29 10:30:51;;;;;;;3.93;3.73;;;23.80;69.20;;;;;;5036056;28;43620;-74
2023/06/29 10:33:23;;;;;;;4.10;3.80;;;23.80;69.30;;;;;;5047070;28;43469;-69
2023/06/29 10:35:55;;;;;;;3.93;3.73;;;23.70;69.20;;;;;;5047973;28;44050;-69
2023/06/29 10:38:28;;;;;;;3.60;3.40;;;23.70;69.70;;;;;;5053512;28;43447;-70
2023/06/29 10:40:56;;;;;;;3.43;3.23;;;23.70;69.70;;;;;;5041704;28;43687;-70
2023/06/29 10:43:27;;;;;;;3.57;3.37;;;23.60;69.50;;;;;;5046869;28;43921;-69
2023/06/29 10:45:55;;;;;;;3.53;3.33;;;23.60;69.50;;;;;;5043236;28;43468;-69
2023/06/29 10:48:24;;;;;;;3.90;3.70;;;23.60;70.20;;;;;;5050261;28;43605;-69
2023/06/29 10:51:07;;;;;;;3.37;3.27;;;23.60;70.20;;;;;;5025075;28;45461;-69
2023/06/29 10:53:34;;;;;;;3.33;3.23;;;23.60;70.10;;;;;;5031461;28;44849;-70
2023/06/29 10:56:02;;;;;;;3.60;3.50;;;23.50;69.60;;;;;;5054806;28;43365;-70
2023/06/29 10:58:37;;;;;;;3.03;2.93;;;23.50;70.30;;;;;;5035340;28;43429;-71
2023/06/29 11:01:05;;;;;;;3.60;3.40;;;23.50;70.20;;;;;;5064267;28;43741;-70
2023/06/29 11:03:34;;;;;;;3.17;3.07;;;23.60;70.00;;;;;;5057745;28;43452;-69
2023/06/29 11:06:03;;;;;;;3.40;3.30;;;23.70;69.60;;;;;;5061423;28;43875;-69
2023/06/29 11:08:30;;;;;;;3.50;3.40;;;23.80;69.20;;;;;;5057659;28;43519;-69
2023/06/29 11:11:12;;;;;;;3.10;3.00;;;23.80;69.10;;;;;;5063402;28;43657;-69
2023/06/29 11:13:42;;;;;;;3.33;3.23;;;23.80;69.10;;;;;;5035363;28;44761;-72
2023/06/29 11:16:11;;;;;;;3.37;3.20;;;23.70;69.00;;;;;;5063899;28;43472;-72
2023/06/29 11:18:39;;;;;;;3.60;3.40;;;23.70;69.60;;;;;;5059865;28;43393;-71
2023/06/29 11:21:07;;;;;;;3.80;3.50;;;23.70;69.60;;;;;;5058003;28;43779;-69
2023/06/29 11:23:35;;;;;;;3.17;3.00;;;23.60;69.60;;;;;;5064110;28;43420;-69
2023/06/29 11:26:03;;;;;;;3.57;3.30;;;23.60;69.40;;;;;;5064107;28;43399;-72
2023/06/29 11:28:32;;;;;;;3.17;3.07;;;23.60;70.10;;;;;;5058836;28;43389;-69
2023/06/29 11:31:01;;;;;;;3.03;2.83;;;23.60;70.10;;;;;;5038577;28;44767;-69
2023/06/29 11:33:29;;;;;;;3.30;3.20;;;23.50;70.00;;;;;;5051702;28;44373;-69
2023/06/29 11:36:27;;;;;;;3.10;3.00;;;23.50;69.70;;;;;;5050886;28;43999;-71
2023/06/29 11:39:07;;;;;;;3.20;3.10;;;23.50;70.30;;;;;;5050318;28;43519;-70
2023/06/29 11:41:36;;;;;;;3.37;3.27;;;23.50;70.50;;;;;;5032278;28;45677;-71
2023/06/29 11:44:04;;;;;;;3.10;3.00;;;23.50;70.20;;;;;;5061905;28;43419;-71
2023/06/29 11:46:34;;;;;;;7.77;3.03;;;23.50;69.90;;;;;;5056567;28;43539;-71
2023/06/29 11:49:04;;;;;;;5.57;3.30;;;23.50;70.20;;;;;;5063409;28;43481;-71
2023/06/29 11:51:32;;;;;;;4.53;3.00;;;23.50;70.60;;;;;;5057691;28;43978;-71
2023/06/29 11:54:02;;;;;;;5.50;3.30;;;23.50;70.20;;;;;;5062992;28;43344;-71
2023/06/29 11:56:35;;;;;;;3.07;2.90;;;23.60;69.80;;;;;;5062800;28;43483;-71
2023/06/29 11:59:06;;;;;;;3.43;3.17;;;23.80;69.40;;;;;;5044633;28;43987;-71
2023/06/29 12:01:36;;;;;;;3.17;2.97;;;23.90;69.20;;;;;;5023738;28;45617;-74
2023/06/29 12:04:04;;;;;;;3.17;2.97;;;23.90;69.00;;;;;;5044878;28;44046;-71
2023/06/29 12:06:33;;;;;;;3.33;3.10;;;23.90;69.10;;;;;;5047072;28;44578;-71
2023/06/29 12:09:02;;;;;;;3.20;3.00;;;23.80;69.10;;;;;;5047207;28;43490;-72
2023/06/29 12:11:30;;;;;;;3.57;2.67;;;23.70;69.50;;;;;;5039392;28;45593;-71
2023/06/29 12:13:58;;;;;;;4.03;3.37;;;23.70;69.60;;;;;;5047226;28;43874;-71
2023/06/29 12:16:26;;;;;;;4.63;2.90;;;23.70;69.60;;;;;;5032093;28;43446;-71
2023/06/29 12:18:59;;;;;;;2.70;2.60;;;23.60;69.30;;;;;;5048196;28;43560;-71
2023/06/29 12:21:27;;;;;;;3.20;3.07;;;23.60;70.10;;;;;;5044415;28;43605;-71
2023/06/29 12:23:55;;;;;;;3.50;3.20;;;23.60;70.30;;;;;;5048441;28;43439;-71
2023/06/29 12:26:25;;;;;;;2.90;2.70;;;23.60;70.10;;;;;;5048643;28;43512;-71
2023/06/29 12:28:53;;;;;;;3.20;3.10;;;23.60;69.90;;;;;;5044808;28;43460;-71
2023/06/29 12:31:25;;;;;;;3.10;3.00;;;23.50;69.80;;;;;;5045357;28;43600;-73
2023/06/29 12:33:53;;;;;;;3.20;3.00;;;23.50;70.60;;;;;;5044657;28;43429;-71
2023/06/29 12:36:23;;;;;;;3.07;2.63;;;23.60;70.60;;;;;;5045879;28;44500;-71
2023/06/29 12:38:51;;;;;;;4.60;3.17;;;23.70;70.30;;;;;;5029925;28;43491;-71
2023/06/29 12:41:19;;;;;;;3.23;3.03;;;23.80;69.70;;;;;;5022897;28;45418;-72
2023/06/29 12:43:47;;;;;;;3.33;3.13;;;23.90;69.50;;;;;;5046253;28;44679;-71
2023/06/29 12:46:15;;;;;;;2.80;2.70;;;23.90;69.50;;;;;;5044913;28;43466;-71
2023/06/29 12:48:43;;;;;;;3.23;3.03;;;23.80;69.30;;;;;;5034988;28;43559;-71
2023/06/29 12:51:11;;;;;;;3.37;3.27;;;23.80;69.90;;;;;;5034354;28;45699;-71
2023/06/29 12:53:42;;;;;;;3.17;2.93;;;23.70;70.00;;;;;;5046587;28;44096;-73
2023/06/29 12:56:10;;;;;;;3.10;2.90;;;23.70;70.00;;;;;;5044674;28;43444;-71